コモドロリバダビア の空港の天気 - METARとTAF

Comodoro Rivadavia Aerodrome ( SAVC / CRD ) - アルゼンチン チュブ州コモドロリバダビア
飛行場実況気象(Metar)
観測時間10/16 03:00 ART (10/16 06:00 UTC)
風向・風速西 7m/s
視程10km以上
天気現象
なし
気温11℃
湿度35%
気圧998hPa
METARSAVC 160600Z 27014KT CAVOK 11/M04 Q0998
過去の天気等 Google飛行場航空写真 Wunderground天気予報

過去48時間のMETAR

飛行場予報(TAF)
発表時間: 10/16 02:00 ART (10/16 05:00 UTC)
予報対象時間: 16日3時 ART ~ 17日3時 ART
風向・風速不定 2m/s
視程10km以上
なし
16日8時 ART ~ 16日11時 ART に徐々に
風向・風速北 13m/s 瞬間風速 18m/s
全天の4割程度の雲 雲底高度 910m
全天の4割程度の雲 雲底高度 2440m
16日12時 ART ~ 16日14時 ART に徐々に
風向・風速西北西 13m/s 瞬間風速 18m/s
全天の8割程度の雲 雲底高度 910m
全天の8割程度の雲 雲底高度 2440m
16日18時 ART ~ 16日20時 ART に徐々に
風向・風速西 10m/s
17日1時 ART ~ 17日3時 ART に徐々に
風向・風速南西 5m/s
TAF SAVC 160500Z 1606/1706 VRB03KT CAVOK TX19/1620Z TN07/1608Z
BECMG 1611/1614 36025G35KT SCT030 SCT080
BECMG 1615/1617 29025G35KT BKN030 BKN080
BECMG 1621/1623 27020KT
BECMG 1704/1706 23010KT